Time;durP1;ratioP1;P1;durP2;ratioP2;P2;SDS_P1;SDS_P2;PMS_P1;PMS_P2;Temp;Humidity;BMP_temperature;BMP_pressure;BME280_temperature;BME280_humidity;BME280_pressure;Samples;Min_cycle;Max_cycle;Signal;HPM_P1;HPM_P2
2022/04/17 00:00:53;;;;;;;82.93;52.75;;;6.00;99.90;;;;;;4905364;29;20131;-69
2022/04/17 00:03:21;;;;;;;83.03;55.72;;;6.00;99.90;;;;;;4938351;29;20062;-69
2022/04/17 00:05:49;;;;;;;76.88;50.67;;;6.00;99.90;;;;;;4939304;29;20052;-69
2022/04/17 00:08:15;;;;;;;73.38;44.25;;;5.90;99.90;;;;;;4930849;29;20488;-69
2022/04/17 00:10:41;;;;;;;62.85;41.65;;;5.90;99.90;;;;;;4940601;29;20183;-69
2022/04/17 00:13:07;;;;;;;67.93;45.38;;;5.90;99.90;;;;;;4937480;29;20054;-70
2022/04/17 00:15:33;;;;;;;65.22;43.22;;;5.80;99.90;;;;;;4904075;29;20056;-69
2022/04/17 00:17:59;;;;;;;62.88;41.42;;;5.70;99.90;;;;;;4937067;29;20044;-71
2022/04/17 00:20:26;;;;;;;57.08;37.85;;;5.70;99.90;;;;;;4936339;29;20420;-69
2022/04/17 00:22:52;;;;;;;50.00;32.22;;;5.70;99.90;;;;;;4939772;29;20057;-69
2022/04/17 00:25:18;;;;;;;48.05;30.73;;;5.60;99.90;;;;;;4932718;29;20047;-69
2022/04/17 00:27:44;;;;;;;48.83;31.13;;;5.60;99.90;;;;;;4904457;29;20055;-70
2022/04/17 00:30:11;;;;;;;38.50;26.35;;;5.70;99.90;;;;;;4934623;29;20168;-69
2022/04/17 00:32:38;;;;;;;40.22;25.40;;;5.70;99.90;;;;;;4958094;28;20069;-70
2022/04/17 00:35:06;;;;;;;38.05;25.13;;;5.70;99.90;;;;;;4965142;28;20051;-70
2022/04/17 00:37:32;;;;;;;37.28;22.70;;;5.70;99.90;;;;;;4954765;28;20051;-69
2022/04/17 00:39:59;;;;;;;36.88;24.88;;;5.70;99.90;;;;;;4940782;28;20050;-69
2022/04/17 00:42:25;;;;;;;32.50;21.48;;;5.70;99.90;;;;;;4938620;28;20493;-69
2022/04/17 00:44:51;;;;;;;33.55;22.80;;;5.80;99.90;;;;;;4966009;28;20404;-69
2022/04/17 00:47:17;;;;;;;34.28;20.50;;;5.80;99.90;;;;;;4938943;28;20047;-69
2022/04/17 00:49:45;;;;;;;41.78;28.08;;;5.80;99.90;;;;;;4965324;28;20059;-71
2022/04/17 00:52:11;;;;;;;32.08;21.48;;;5.70;99.90;;;;;;4947886;28;20190;-69
2022/04/17 00:54:46;;;;;;;27.90;20.88;;;5.70;99.90;;;;;;4928338;28;20043;-71
2022/04/17 00:57:16;;;;;;;25.88;17.52;;;5.60;99.90;;;;;;4951061;28;20050;-69
2022/04/17 00:59:44;;;;;;;29.55;18.80;;;5.60;99.90;;;;;;4946138;28;20100;-70
2022/04/17 01:02:11;;;;;;;26.33;17.45;;;5.60;99.90;;;;;;4932769;28;20075;-69
2022/04/17 01:04:39;;;;;;;24.85;15.68;;;5.60;99.90;;;;;;4943171;28;20055;-69
2022/04/17 01:07:06;;;;;;;25.67;15.75;;;5.50;99.90;;;;;;4923945;29;20054;-69
2022/04/17 01:09:33;;;;;;;24.30;15.35;;;5.60;99.90;;;;;;4958658;28;20050;-69
2022/04/17 01:11:59;;;;;;;25.27;16.85;;;5.60;99.90;;;;;;4923715;29;20043;-68
2022/04/17 01:14:29;;;;;;;25.35;16.73;;;5.60;99.90;;;;;;4944619;28;20087;-70
2022/04/17 01:16:55;;;;;;;28.25;17.33;;;5.60;99.90;;;;;;4919150;29;20056;-69
2022/04/17 01:19:23;;;;;;;21.55;14.38;;;5.60;99.90;;;;;;4955336;28;20043;-69
2022/04/17 01:21:49;;;;;;;22.67;14.98;;;5.60;99.90;;;;;;4948399;28;20130;-69
2022/04/17 01:27:03;;;;;;;20.23;13.60;;;5.70;99.90;;;;;;4936043;28;20086;-69
2022/04/17 01:29:40;;;;;;;23.23;15.65;;;5.70;99.90;;;;;;4952367;28;20130;-72
2022/04/17 01:32:10;;;;;;;23.45;15.45;;;5.70;99.90;;;;;;4920701;28;20051;-69
2022/04/17 01:34:38;;;;;;;22.70;14.43;;;5.60;99.90;;;;;;4951109;28;20047;-69
2022/04/17 01:37:05;;;;;;;24.45;14.60;;;5.50;99.90;;;;;;4950777;28;20063;-70
2022/04/17 01:39:32;;;;;;;24.20;14.93;;;5.30;99.90;;;;;;4924092;29;20078;-69
2022/04/17 01:41:59;;;;;;;27.90;16.02;;;5.20;99.90;;;;;;4952066;28;20114;-70
2022/04/17 01:44:28;;;;;;;24.38;16.13;;;5.10;99.90;;;;;;4921378;29;20047;-69
2022/04/17 01:46:54;;;;;;;20.77;13.90;;;5.20;99.90;;;;;;4936360;29;20089;-69
2022/04/17 01:49:21;;;;;;;22.27;14.25;;;5.20;99.90;;;;;;4938913;28;20054;-69
2022/04/17 01:51:48;;;;;;;21.15;14.88;;;5.20;99.90;;;;;;4943387;28;20134;-69
2022/04/17 01:54:16;;;;;;;19.88;13.75;;;5.20;99.90;;;;;;4938425;29;20058;-69
2022/04/17 01:56:44;;;;;;;23.63;13.68;;;5.30;99.90;;;;;;4948960;28;20043;-69
2022/04/17 01:59:11;;;;;;;21.70;14.52;;;5.50;99.90;;;;;;4926629;29;20101;-68
2022/04/17 02:01:38;;;;;;;21.55;14.55;;;5.40;99.90;;;;;;4954960;28;20051;-69
2022/04/17 02:04:06;;;;;;;23.02;14.23;;;5.40;99.90;;;;;;4952571;29;20047;-69
2022/04/17 02:06:32;;;;;;;21.15;14.02;;;5.40;99.90;;;;;;4919104;28;20119;-69
2022/04/17 02:08:58;;;;;;;22.25;14.23;;;5.30;99.90;;;;;;4936356;29;20058;-69
2022/04/17 02:11:26;;;;;;;19.52;13.05;;;5.20;99.90;;;;;;4950546;29;20127;-71
2022/04/17 02:13:53;;;;;;;19.52;13.95;;;5.10;99.90;;;;;;4936332;29;20109;-69
2022/04/17 02:16:20;;;;;;;22.00;14.38;;;5.00;99.90;;;;;;4935593;29;20098;-69
2022/04/17 02:18:49;;;;;;;18.35;12.48;;;5.00;99.90;;;;;;4920409;29;20099;-69
2022/04/17 02:21:17;;;;;;;20.08;13.50;;;4.90;99.90;;;;;;4956139;28;20483;-69
2022/04/17 02:23:44;;;;;;;19.42;13.10;;;4.40;99.90;;;;;;4946829;28;20178;-69
2022/04/17 02:26:12;;;;;;;21.65;13.88;;;4.30;99.90;;;;;;4920006;29;20493;-68
2022/04/17 02:28:40;;;;;;;22.00;14.23;;;4.20;99.90;;;;;;4938300;28;20058;-69
2022/04/17 02:31:08;;;;;;;21.05;14.52;;;4.10;99.90;;;;;;4920055;29;20114;-69
2022/04/17 02:33:35;;;;;;;31.77;16.20;;;4.10;99.90;;;;;;4917336;29;20057;-70
2022/04/17 02:36:01;;;;;;;21.23;15.25;;;4.10;99.90;;;;;;4939170;29;20127;-68
2022/04/17 02:38:27;;;;;;;20.55;14.13;;;4.10;99.90;;;;;;4921207;29;20102;-69
2022/04/17 02:40:54;;;;;;;23.05;14.98;;;4.10;99.90;;;;;;4942333;29;20070;-68
2022/04/17 02:43:20;;;;;;;28.73;16.85;;;3.80;99.90;;;;;;4933810;29;20060;-69
2022/04/17 02:45:47;;;;;;;25.30;16.50;;;3.80;99.90;;;;;;4920670;29;20048;-68
2022/04/17 02:48:13;;;;;;;25.30;17.40;;;3.90;99.90;;;;;;4942552;29;20052;-69
2022/04/17 02:50:39;;;;;;;26.08;17.92;;;3.90;99.90;;;;;;4916406;29;20044;-69
2022/04/17 02:53:06;;;;;;;27.80;18.45;;;3.90;99.90;;;;;;4919035;29;20062;-69
2022/04/17 02:55:31;;;;;;;25.83;16.60;;;4.00;99.90;;;;;;4938889;29;20430;-70
2022/04/17 02:57:59;;;;;;;28.33;17.52;;;3.90;99.90;;;;;;4941790;29;20139;-69
2022/04/17 03:00:26;;;;;;;27.27;18.77;;;3.90;99.90;;;;;;4916626;29;20055;-69
2022/04/17 03:05:57;;;;;;;26.02;18.17;;;3.90;99.90;;;;;;4864116;29;20065;-69
2022/04/17 03:08:25;;;;;;;27.75;17.92;;;3.80;99.90;;;;;;4860951;29;20056;-69
2022/04/17 03:10:51;;;;;;;29.95;19.58;;;3.80;99.90;;;;;;4882996;29;20106;-68
2022/04/17 03:13:17;;;;;;;30.98;20.17;;;3.80;99.90;;;;;;4935654;29;20087;-69
2022/04/17 03:15:43;;;;;;;28.90;20.02;;;3.70;99.90;;;;;;4919858;29;20055;-70
2022/04/17 03:18:09;;;;;;;27.05;18.40;;;3.70;99.90;;;;;;4914074;29;20047;-68
2022/04/17 03:20:36;;;;;;;33.25;22.17;;;3.70;99.90;;;;;;4936247;29;20508;-70
2022/04/17 03:23:02;;;;;;;39.42;23.90;;;3.70;99.90;;;;;;4919445;29;20047;-69
2022/04/17 03:25:29;;;;;;;35.88;22.33;;;3.70;99.90;;;;;;4935893;29;20046;-69
2022/04/17 03:27:57;;;;;;;33.83;22.27;;;3.70;99.90;;;;;;4919365;29;20405;-69
2022/04/17 03:30:24;;;;;;;35.67;21.98;;;3.70;99.90;;;;;;4920547;29;20063;-69
2022/04/17 03:32:51;;;;;;;36.58;21.50;;;3.60;99.90;;;;;;4936277;29;20086;-69
2022/04/17 03:35:20;;;;;;;35.55;21.98;;;3.70;99.90;;;;;;4938185;29;20559;-69
2022/04/17 03:37:46;;;;;;;37.33;23.45;;;3.50;99.90;;;;;;4953920;28;20573;-68
2022/04/17 03:40:16;;;;;;;34.58;22.75;;;3.50;99.90;;;;;;4938954;29;20138;-69
2022/04/17 03:42:43;;;;;;;37.30;24.70;;;3.50;99.90;;;;;;4922666;29;20079;-70
2022/04/17 03:45:17;;;;;;;35.95;22.30;;;3.50;99.90;;;;;;4954759;29;20437;-69
2022/04/17 03:47:43;;;;;;;34.45;20.80;;;3.50;99.90;;;;;;4918967;29;20556;-69
2022/04/17 03:50:10;;;;;;;40.47;24.35;;;3.50;99.90;;;;;;4954784;29;20063;-69
2022/04/17 03:52:39;;;;;;;40.42;23.58;;;3.50;99.90;;;;;;4937567;29;20094;-69
2022/04/17 03:55:06;;;;;;;42.70;26.65;;;3.40;99.90;;;;;;4954309;29;20118;-70
2022/04/17 03:57:32;;;;;;;43.25;25.40;;;3.40;99.90;;;;;;4954515;28;20487;-68
2022/04/17 03:59:58;;;;;;;42.72;25.95;;;3.40;99.90;;;;;;4920223;29;20126;-69
2022/04/17 04:02:25;;;;;;;40.13;24.63;;;3.40;99.90;;;;;;4952007;29;20047;-69
2022/04/17 04:04:51;;;;;;;41.22;24.83;;;3.40;99.90;;;;;;4953366;28;20547;-69
2022/04/17 04:07:16;;;;;;;39.53;24.55;;;3.30;99.90;;;;;;4936964;29;20089;-70
2022/04/17 04:09:42;;;;;;;45.88;27.50;;;3.10;99.90;;;;;;4955055;29;20083;-69
2022/04/17 04:12:08;;;;;;;42.53;27.52;;;3.00;99.90;;;;;;4930411;29;20051;-69
2022/04/17 04:14:34;;;;;;;40.67;25.77;;;3.00;99.90;;;;;;4953666;29;20127;-70
2022/04/17 04:17:00;;;;;;;41.45;24.13;;;3.00;99.90;;;;;;4955004;29;20051;-69
2022/04/17 04:19:26;;;;;;;39.88;24.50;;;3.10;99.90;;;;;;4953003;29;20200;-69
2022/04/17 04:21:52;;;;;;;41.20;23.83;;;3.20;99.90;;;;;;4937686;29;20251;-69
2022/04/17 04:24:19;;;;;;;38.47;23.75;;;3.20;99.90;;;;;;4936650;29;20542;-69
2022/04/17 04:29:34;;;;;;;38.88;22.85;;;3.30;99.90;;;;;;4933944;29;20062;-70
2022/04/17 04:32:00;;;;;;;39.53;23.25;;;3.40;99.90;;;;;;4942845;28;20047;-71
2022/04/17 04:34:26;;;;;;;41.47;23.88;;;3.40;99.90;;;;;;4938619;29;20051;-69
2022/04/17 04:36:52;;;;;;;38.80;22.58;;;3.40;99.90;;;;;;4953542;29;20381;-69
2022/04/17 04:39:18;;;;;;;40.25;23.10;;;3.40;99.90;;;;;;4940948;29;20043;-68
2022/04/17 04:41:45;;;;;;;41.70;24.20;;;3.40;99.90;;;;;;4922357;29;20058;-69
2022/04/17 04:44:11;;;;;;;38.92;22.90;;;3.40;99.90;;;;;;4936335;29;20051;-69
2022/04/17 04:46:37;;;;;;;45.58;25.00;;;3.40;99.90;;;;;;4938019;29;20051;-68
2022/04/17 04:51:48;;;;;;;42.17;24.20;;;3.40;99.90;;;;;;4953471;29;20047;-69
2022/04/17 04:54:14;;;;;;;43.50;26.90;;;3.50;99.90;;;;;;4952537;28;20048;-68
2022/04/17 04:56:40;;;;;;;46.72;26.85;;;3.40;99.90;;;;;;4937139;29;20424;-68
2022/04/17 04:59:06;;;;;;;50.50;26.77;;;3.40;99.90;;;;;;4942374;29;20047;-68
2022/04/17 05:01:32;;;;;;;46.80;26.98;;;3.40;99.90;;;;;;4954646;29;20058;-69
2022/04/17 05:03:58;;;;;;;49.05;28.00;;;3.40;99.90;;;;;;4954305;28;20055;-69
2022/04/17 05:06:24;;;;;;;50.60;28.73;;;3.40;99.90;;;;;;4936976;29;20125;-69
2022/04/17 05:08:50;;;;;;;48.30;28.48;;;3.50;99.90;;;;;;4952267;28;20039;-69
2022/04/17 05:11:16;;;;;;;48.45;27.35;;;3.60;99.90;;;;;;4945321;29;20633;-68
2022/04/17 05:13:43;;;;;;;51.00;27.83;;;3.70;99.90;;;;;;4936745;29;20492;-68
2022/04/17 05:16:10;;;;;;;51.03;29.58;;;3.80;99.90;;;;;;4937391;29;20047;-69
2022/04/17 05:18:36;;;;;;;47.65;28.50;;;3.90;99.90;;;;;;4920073;29;20059;-68
2022/04/17 05:21:02;;;;;;;49.70;28.65;;;4.00;99.90;;;;;;4937410;28;20047;-70
2022/04/17 05:23:29;;;;;;;53.05;30.60;;;4.10;99.90;;;;;;4936766;29;20082;-68
2022/04/17 05:26:03;;;;;;;54.47;28.60;;;4.10;99.90;;;;;;4937665;29;20050;-68
2022/04/17 05:28:30;;;;;;;48.75;28.98;;;4.10;99.90;;;;;;4936022;29;20102;-70
2022/04/17 05:30:58;;;;;;;49.45;28.65;;;4.20;99.90;;;;;;4937399;29;20049;-70
2022/04/17 05:33:25;;;;;;;51.47;29.00;;;4.30;99.90;;;;;;4936346;29;20051;-71
2022/04/17 05:35:52;;;;;;;46.17;29.75;;;4.40;99.90;;;;;;4953101;28;20051;-69
2022/04/17 05:38:20;;;;;;;52.35;30.50;;;4.80;99.90;;;;;;4935280;29;20540;-68
2022/04/17 05:40:52;;;;;;;49.22;29.90;;;4.70;99.90;;;;;;4937319;29;20051;-69
2022/04/17 05:43:19;;;;;;;55.50;33.15;;;4.80;99.90;;;;;;4936699;29;20503;-69
2022/04/17 05:45:48;;;;;;;60.13;31.92;;;4.90;99.90;;;;;;4952871;29;20102;-69
2022/04/17 05:48:14;;;;;;;54.42;32.40;;;5.00;99.90;;;;;;4935992;29;20087;-69
2022/04/17 05:50:41;;;;;;;57.60;32.95;;;5.10;99.90;;;;;;4937158;29;20040;-71
2022/04/17 05:53:08;;;;;;;58.15;34.17;;;5.20;99.90;;;;;;4936012;29;20130;-69
2022/04/17 05:55:39;;;;;;;61.90;34.25;;;5.20;99.90;;;;;;4953015;29;20047;-69
2022/04/17 05:58:05;;;;;;;65.15;35.65;;;5.30;99.90;;;;;;4936240;29;20051;-69
2022/04/17 06:00:32;;;;;;;58.10;34.60;;;5.40;99.90;;;;;;4937037;29;20119;-71
2022/04/17 06:02:58;;;;;;;59.25;34.38;;;5.50;99.90;;;;;;4936419;29;20382;-69
2022/04/17 06:05:24;;;;;;;52.95;32.47;;;5.60;99.90;;;;;;4952840;29;20050;-69
2022/04/17 06:07:50;;;;;;;54.53;33.20;;;5.70;99.90;;;;;;4934590;29;20083;-69
2022/04/17 06:10:16;;;;;;;53.35;31.98;;;5.80;99.90;;;;;;4936771;29;20138;-70
2022/04/17 06:12:43;;;;;;;53.40;32.42;;;6.00;99.90;;;;;;4936166;29;20065;-68
2022/04/17 06:15:10;;;;;;;52.67;31.05;;;6.10;99.90;;;;;;4936343;29;20515;-68
2022/04/17 06:17:41;;;;;;;49.65;29.38;;;6.30;99.90;;;;;;4935914;29;20047;-69
2022/04/17 06:20:10;;;;;;;51.22;28.23;;;6.40;99.90;;;;;;4952236;29;20054;-69
2022/04/17 06:22:37;;;;;;;46.17;27.42;;;6.60;99.90;;;;;;4951011;28;20047;-70
2022/04/17 06:25:08;;;;;;;46.78;28.55;;;6.70;99.90;;;;;;4920697;29;20055;-69
2022/04/17 06:27:46;;;;;;;45.22;28.05;;;6.80;99.90;;;;;;4952743;28;20051;-68
2022/04/17 06:30:18;;;;;;;44.22;27.13;;;7.00;99.90;;;;;;4956619;29;20047;-70
2022/04/17 06:32:45;;;;;;;45.60;28.48;;;7.20;99.90;;;;;;4937011;29;20119;-69
2022/04/17 06:35:13;;;;;;;45.90;27.60;;;7.40;99.90;;;;;;4939974;29;20539;-68
2022/04/17 06:38:01;;;;;;;43.47;27.33;;;7.50;99.90;;;;;;4955858;29;20126;-73
2022/04/17 06:40:29;;;;;;;42.17;26.83;;;7.60;99.90;;;;;;4951333;28;20126;-70
2022/04/17 06:42:57;;;;;;;43.05;26.13;;;7.80;99.90;;;;;;4953823;29;20051;-72
2022/04/17 06:45:26;;;;;;;39.22;25.95;;;7.90;99.90;;;;;;4940262;29;20065;-69
2022/04/17 06:47:54;;;;;;;43.83;25.88;;;8.10;99.90;;;;;;4939309;29;20047;-69
2022/04/17 06:50:22;;;;;;;37.20;25.02;;;8.10;99.90;;;;;;4956769;28;20099;-70
2022/04/17 06:52:49;;;;;;;35.95;22.80;;;8.30;99.90;;;;;;4956203;29;20051;-70
2022/04/17 06:55:15;;;;;;;31.90;19.40;;;8.50;99.90;;;;;;4938996;29;20051;-68
2022/04/17 06:57:50;;;;;;;29.67;18.48;;;8.50;99.90;;;;;;4939669;29;20378;-71
2022/04/17 07:00:18;;;;;;;27.90;18.90;;;8.60;99.90;;;;;;4957020;28;20058;-70
2022/04/17 07:02:45;;;;;;;31.10;19.23;;;8.70;99.90;;;;;;4939898;29;20055;-70
2022/04/17 07:05:12;;;;;;;27.73;18.55;;;8.80;99.90;;;;;;4942683;29;20055;-69
2022/04/17 07:07:38;;;;;;;26.77;18.20;;;8.90;99.90;;;;;;4939528;29;20091;-70
2022/04/17 07:10:05;;;;;;;30.27;18.63;;;9.00;99.90;;;;;;4940157;28;20039;-69
2022/04/17 07:12:31;;;;;;;32.30;18.73;;;9.10;99.90;;;;;;4939830;29;20051;-69
2022/04/17 07:15:00;;;;;;;28.52;18.95;;;9.20;99.90;;;;;;4954926;29;20059;-69
2022/04/17 07:17:37;;;;;;;27.38;17.73;;;9.30;99.90;;;;;;4939440;28;20051;-69
2022/04/17 07:20:08;;;;;;;26.00;17.63;;;9.40;99.90;;;;;;4923127;28;20054;-69
2022/04/17 07:22:35;;;;;;;26.50;17.20;;;9.50;99.90;;;;;;4923310;28;20062;-72
2022/04/17 07:25:01;;;;;;;22.25;15.43;;;9.70;99.90;;;;;;4939563;29;20043;-70
2022/04/17 07:27:38;;;;;;;24.98;16.60;;;9.70;99.90;;;;;;4938285;29;20051;-71
2022/04/17 07:30:12;;;;;;;25.92;15.77;;;9.80;99.90;;;;;;4923638;29;20058;-71
2022/04/17 07:32:39;;;;;;;24.90;16.60;;;10.00;99.90;;;;;;4922957;29;20063;-70
2022/04/17 07:35:06;;;;;;;22.08;14.95;;;10.00;99.90;;;;;;4944830;29;20732;-70
2022/04/17 07:37:34;;;;;;;20.80;14.02;;;10.10;99.90;;;;;;4919228;29;20055;-71
2022/04/17 07:40:21;;;;;;;20.77;14.50;;;10.30;99.90;;;;;;4935387;29;20126;-71
2022/04/17 07:42:49;;;;;;;18.02;13.50;;;10.40;99.90;;;;;;4936869;29;20437;-70
2022/04/17 07:45:15;;;;;;;18.70;13.10;;;10.60;99.90;;;;;;4936285;29;20051;-71
2022/04/17 07:47:42;;;;;;;17.73;12.60;;;10.70;99.90;;;;;;4919791;29;20126;-70
2022/04/17 07:50:10;;;;;;;17.83;11.77;;;10.90;99.90;;;;;;4921208;29;20056;-70
2022/04/17 07:52:36;;;;;;;16.85;11.20;;;11.00;99.90;;;;;;4919451;29;20444;-71
2022/04/17 07:55:06;;;;;;;17.65;12.02;;;11.10;99.90;;;;;;4919188;29;20648;-70
2022/04/17 08:00:21;;;;;;;16.85;11.20;;;11.20;99.90;;;;;;4918629;29;20119;-70
2022/04/17 08:02:52;;;;;;;14.88;10.52;;;11.30;99.90;;;;;;4920560;29;20047;-72
2022/04/17 08:05:19;;;;;;;20.17;11.32;;;11.60;99.90;;;;;;4919514;29;20065;-70
2022/04/17 08:07:44;;;;;;;15.48;10.25;;;11.40;99.90;;;;;;4918574;29;20449;-70
2022/04/17 08:10:10;;;;;;;14.85;10.32;;;11.40;99.90;;;;;;4936573;29;20051;-70
2022/04/17 08:12:36;;;;;;;17.60;10.93;;;11.60;99.90;;;;;;4920149;29;20047;-72
2022/04/17 08:15:03;;;;;;;14.23;10.45;;;11.60;99.90;;;;;;4941750;29;20048;-70
2022/04/17 08:17:28;;;;;;;13.30;9.88;;;11.70;99.90;;;;;;4934288;29;20055;-69
2022/04/17 08:19:54;;;;;;;15.50;10.52;;;11.80;99.90;;;;;;4938573;29;20043;-70
2022/04/17 08:22:21;;;;;;;14.23;10.40;;;11.90;99.90;;;;;;4921314;29;20485;-70
2022/04/17 08:24:47;;;;;;;13.55;9.63;;;12.00;96.10;;;;;;4935646;29;21566;-69
2022/04/17 08:27:13;;;;;;;12.57;9.18;;;12.20;98.60;;;;;;4934396;29;20039;-70
2022/04/17 08:29:39;;;;;;;14.23;9.70;;;12.10;86.00;;;;;;4919200;29;20056;-70
2022/04/17 08:32:05;;;;;;;11.80;9.13;;;12.30;99.90;;;;;;4949028;28;20062;-71
2022/04/17 08:34:31;;;;;;;12.27;8.90;;;12.40;84.60;;;;;;4935936;28;20054;-70
2022/04/17 08:36:57;;;;;;;14.02;8.63;;;12.40;90.00;;;;;;4954189;28;20484;-71
2022/04/17 08:39:23;;;;;;;12.98;8.73;;;12.70;98.20;;;;;;4937368;29;20517;-70
2022/04/17 08:41:50;;;;;;;15.80;8.90;;;12.60;83.90;;;;;;4936324;29;20050;-70
2022/04/17 08:44:16;;;;;;;11.98;9.10;;;12.60;81.50;;;;;;4939320;29;20500;-69
2022/04/17 08:46:42;;;;;;;14.35;9.55;;;12.80;88.30;;;;;;4935843;28;20047;-70
2022/04/17 08:49:10;;;;;;;12.60;9.30;;;12.80;82.20;;;;;;4936653;28;20055;-69
2022/04/17 08:51:42;;;;;;;12.50;9.60;;;12.80;77.90;;;;;;4936989;29;20051;-70
2022/04/17 08:54:08;;;;;;;13.02;9.18;;;13.00;82.20;;;;;;4944652;28;20154;-70
2022/04/17 08:56:37;;;;;;;13.48;8.98;;;13.10;78.70;;;;;;4936524;29;20067;-71
2022/04/17 08:59:03;;;;;;;26.42;10.85;;;13.20;76.50;;;;;;4952736;28;20051;-69
2022/04/17 09:01:30;;;;;;;12.68;9.23;;;13.40;80.10;;;;;;4922157;29;20054;-69
2022/04/17 09:03:55;;;;;;;13.40;8.65;;;13.50;77.60;;;;;;4935236;29;20432;-69
2022/04/17 09:06:21;;;;;;;11.35;8.23;;;13.50;76.90;;;;;;4937263;29;20116;-69
2022/04/17 09:09:05;;;;;;;12.10;7.80;;;13.50;73.60;;;;;;4952551;29;20105;-68
2022/04/17 09:11:34;;;;;;;13.18;8.10;;;13.60;70.20;;;;;;4937896;29;20127;-69
2022/04/17 09:14:03;;;;;;;11.95;7.38;;;13.90;75.40;;;;;;4951713;29;20484;-69
2022/04/17 09:16:33;;;;;;;8.27;6.35;;;14.10;76.10;;;;;;4953232;29;20126;-70
2022/04/17 09:18:59;;;;;;;9.77;6.15;;;14.10;72.10;;;;;;4936779;29;20496;-70
2022/04/17 09:21:34;;;;;;;9.70;6.80;;;14.30;72.40;;;;;;4937861;29;20054;-76
2022/04/17 09:24:17;;;;;;;10.30;6.65;;;14.20;68.00;;;;;;4937041;29;20114;-73
2022/04/17 09:26:57;;;;;;;9.77;7.10;;;14.30;67.20;;;;;;4918534;29;20043;-73
2022/04/17 09:29:25;;;;;;;10.23;7.18;;;14.40;68.50;;;;;;4937200;29;20480;-75
2022/04/17 09:32:07;;;;;;;9.40;7.13;;;14.60;69.70;;;;;;4951852;29;20055;-73
2022/04/17 09:34:52;;;;;;;11.63;7.60;;;14.70;65.40;;;;;;4935338;28;20403;-73
2022/04/17 09:37:23;;;;;;;9.05;6.47;;;14.90;66.10;;;;;;4943011;28;20079;-75
2022/04/17 09:39:52;;;;;;;12.73;7.25;;;14.90;66.90;;;;;;4954102;28;20055;-72
2022/04/17 09:42:23;;;;;;;10.23;6.60;;;14.90;65.20;;;;;;4936785;29;20047;-73
2022/04/17 09:44:50;;;;;;;10.23;6.97;;;14.90;65.90;;;;;;4936680;29;20051;-71
2022/04/17 09:47:25;;;;;;;11.60;6.28;;;15.00;66.00;;;;;;4919815;29;20411;-74
2022/04/17 09:49:52;;;;;;;10.48;6.93;;;15.00;64.10;;;;;;4940501;28;20051;-71
2022/04/17 09:52:18;;;;;;;8.98;6.97;;;15.20;66.70;;;;;;4937992;29;20055;-72
2022/04/17 09:54:45;;;;;;;8.73;6.40;;;15.30;64.90;;;;;;4920976;29;20130;-72
2022/04/17 09:57:36;;;;;;;9.48;6.60;;;15.40;66.30;;;;;;4938156;29;20452;-71
2022/04/17 10:00:09;;;;;;;9.43;6.57;;;15.60;65.00;;;;;;4937196;28;20047;-72
2022/04/17 10:02:40;;;;;;;11.00;6.70;;;15.50;60.50;;;;;;4942032;28;20055;-75
2022/04/17 10:05:08;;;;;;;11.18;6.72;;;15.60;63.50;;;;;;4943561;29;20055;-71
2022/04/17 10:07:37;;;;;;;10.10;6.90;;;15.60;62.40;;;;;;4933644;28;20057;-72
2022/04/17 10:10:07;;;;;;;9.43;6.68;;;15.80;64.60;;;;;;4936866;29;20125;-73
2022/04/17 10:12:37;;;;;;;8.45;6.25;;;15.80;62.80;;;;;;4936001;29;20057;-72
2022/04/17 10:15:06;;;;;;;10.10;6.80;;;15.70;61.00;;;;;;4945496;29;20043;-72
2022/04/17 10:17:33;;;;;;;10.18;6.70;;;15.90;62.50;;;;;;4920707;29;20051;-72
2022/04/17 10:20:11;;;;;;;9.30;6.32;;;16.10;62.80;;;;;;4936305;29;20535;-72
2022/04/17 10:22:39;;;;;;;8.75;6.40;;;16.20;61.10;;;;;;4945446;28;20153;-72
2022/04/17 10:25:08;;;;;;;9.80;6.68;;;16.30;61.90;;;;;;4936915;29;20051;-73
2022/04/17 10:27:37;;;;;;;7.63;5.70;;;16.40;60.50;;;;;;4935491;28;20047;-73
2022/04/17 10:30:12;;;;;;;8.52;5.93;;;16.40;58.80;;;;;;4955058;28;20058;-72
2022/04/17 10:33:12;;;;;;;8.93;5.70;;;16.50;59.90;;;;;;4936085;29;20138;-73
2022/04/17 10:36:06;;;;;;;8.27;5.72;;;16.40;53.50;;;;;;4937759;28;20059;-73
2022/04/17 10:39:02;;;;;;;9.13;5.60;;;16.30;52.40;;;;;;4957072;28;20051;-75
2022/04/17 10:41:28;;;;;;;10.13;6.13;;;16.30;54.10;;;;;;4925970;29;20063;-73
2022/04/17 10:43:59;;;;;;;6.90;5.30;;;16.40;56.50;;;;;;4935844;29;20396;-74
2022/04/17 10:46:25;;;;;;;6.15;5.18;;;16.60;56.00;;;;;;4924139;28;20061;-74
2022/04/17 10:49:00;;;;;;;8.20;5.20;;;16.60;56.10;;;;;;4941274;29;20061;-75
2022/04/17 10:51:30;;;;;;;7.47;5.40;;;16.60;54.40;;;;;;4935112;29;20078;-74
2022/04/17 10:54:10;;;;;;;8.13;5.60;;;16.70;55.90;;;;;;4935303;29;20460;-74
2022/04/17 10:56:40;;;;;;;7.20;5.18;;;16.70;53.10;;;;;;4949142;28;20416;-75
2022/04/17 10:59:20;;;;;;;9.75;6.03;;;16.80;54.20;;;;;;4934660;29;20047;-74
2022/04/17 11:01:51;;;;;;;7.53;5.60;;;16.90;54.20;;;;;;4934543;29;20051;-73
2022/04/17 11:04:50;;;;;;;7.93;5.50;;;16.80;53.40;;;;;;4917955;29;20081;-74
2022/04/17 11:07:16;;;;;;;9.45;5.57;;;16.90;53.50;;;;;;4930934;28;20134;-74
2022/04/17 11:09:45;;;;;;;7.18;5.30;;;17.00;54.90;;;;;;4958219;28;20058;-73
2022/04/17 11:12:18;;;;;;;7.50;5.78;;;17.20;55.20;;;;;;4925170;29;20391;-74
2022/04/17 11:14:54;;;;;;;9.15;6.00;;;17.30;53.10;;;;;;4937903;29;20051;-74
2022/04/17 11:17:24;;;;;;;8.73;6.30;;;17.50;51.90;;;;;;4939954;28;20461;-73
2022/04/17 11:19:56;;;;;;;7.97;6.10;;;17.70;53.60;;;;;;4947237;29;20039;-72
2022/04/17 11:22:41;;;;;;;8.93;6.25;;;17.90;52.20;;;;;;4954743;29;20183;-73
2022/04/17 11:25:09;;;;;;;9.00;5.57;;;17.90;49.30;;;;;;4953357;29;20400;-72
2022/04/17 11:27:41;;;;;;;10.10;5.70;;;18.10;52.40;;;;;;4925610;28;20074;-73
2022/04/17 11:30:27;;;;;;;8.50;6.00;;;18.20;51.40;;;;;;4954946;29;20070;-74
2022/04/17 11:32:55;;;;;;;7.43;5.63;;;18.20;50.00;;;;;;4881746;29;1577777;-74
2022/04/17 11:35:25;;;;;;;7.78;6.05;;;18.30;53.50;;;;;;4941922;29;20404;-73
2022/04/17 11:38:01;;;;;;;11.30;6.30;;;18.30;52.40;;;;;;4932412;29;20075;-74
2022/04/17 11:40:32;;;;;;;8.10;6.43;;;18.40;53.70;;;;;;4939447;29;20047;-74
2022/04/17 11:43:09;;;;;;;8.27;5.55;;;18.40;53.20;;;;;;4939589;29;20055;-74
2022/04/17 11:45:36;;;;;;;8.98;5.72;;;18.20;49.60;;;;;;4957003;28;20435;-75
2022/04/17 11:48:05;;;;;;;8.88;5.72;;;18.40;51.90;;;;;;4920703;29;20110;-75
2022/04/17 11:50:31;;;;;;;9.15;5.70;;;18.40;51.50;;;;;;4923236;29;20055;-75
2022/04/17 11:53:00;;;;;;;7.18;5.60;;;18.40;52.10;;;;;;4939679;29;20127;-76
2022/04/17 11:55:28;;;;;;;9.32;5.45;;;18.40;51.20;;;;;;4938374;29;20114;-74
2022/04/17 11:57:55;;;;;;;6.78;4.88;;;18.60;50.90;;;;;;4938079;29;20118;-73
2022/04/17 12:00:22;;;;;;;8.07;5.20;;;18.60;50.90;;;;;;4955604;28;20493;-74
2022/04/17 12:02:55;;;;;;;6.75;5.28;;;18.80;50.70;;;;;;4954703;28;20625;-76
2022/04/17 12:05:21;;;;;;;7.15;5.30;;;19.00;48.70;;;;;;4937927;29;20043;-76
2022/04/17 12:07:56;;;;;;;9.45;5.60;;;19.10;50.50;;;;;;4954221;28;20102;-70
2022/04/17 12:10:22;;;;;;;7.05;5.40;;;19.20;50.20;;;;;;4922522;29;20133;-71
2022/04/17 12:12:49;;;;;;;8.98;5.78;;;19.40;50.20;;;;;;4954844;29;20118;-71
2022/04/17 12:15:15;;;;;;;6.80;4.72;;;19.60;50.40;;;;;;4953203;28;20062;-72
2022/04/17 12:17:42;;;;;;;7.25;5.45;;;19.70;50.20;;;;;;4924541;29;20055;-71
2022/04/17 12:20:13;;;;;;;6.72;5.28;;;19.80;50.40;;;;;;4953480;28;20055;-72
2022/04/17 12:22:42;;;;;;;7.88;5.25;;;20.00;49.40;;;;;;4937245;29;20046;-72
2022/04/17 12:25:27;;;;;;;6.75;4.70;;;20.10;49.70;;;;;;4937448;29;20042;-72
2022/04/17 12:27:54;;;;;;;7.03;5.30;;;20.40;48.70;;;;;;4937240;29;20054;-72
2022/04/17 12:30:27;;;;;;;7.35;5.22;;;20.20;48.40;;;;;;4938579;29;20105;-72
2022/04/17 12:32:59;;;;;;;7.07;5.18;;;20.10;47.10;;;;;;4936959;29;20058;-72
2022/04/17 12:35:30;;;;;;;5.60;4.97;;;20.20;49.00;;;;;;4954207;29;20126;-72
2022/04/17 12:38:11;;;;;;;7.28;5.03;;;20.50;47.60;;;;;;4937205;29;20043;-76
2022/04/17 12:40:42;;;;;;;6.03;4.80;;;20.70;46.70;;;;;;4954022;28;20138;-72
2022/04/17 12:43:19;;;;;;;7.32;5.40;;;20.80;47.10;;;;;;4943263;28;20050;-74
2022/04/17 12:45:56;;;;;;;5.75;4.88;;;20.90;44.70;;;;;;4960205;28;20047;-74
2022/04/17 12:48:31;;;;;;;7.57;4.70;;;20.90;46.70;;;;;;4921693;29;20051;-73
2022/04/17 12:50:58;;;;;;;5.07;4.30;;;21.20;46.10;;;;;;4937624;28;20049;-73
2022/04/17 12:53:25;;;;;;;5.10;4.45;;;21.30;46.20;;;;;;4929317;29;20134;-74
2022/04/17 12:55:55;;;;;;;5.38;4.40;;;21.20;46.10;;;;;;4953659;28;20047;-74
2022/04/17 12:58:22;;;;;;;7.32;4.32;;;21.30;45.40;;;;;;4937112;29;20393;-74
2022/04/17 13:00:56;;;;;;;5.35;4.18;;;21.80;45.90;;;;;;4952800;28;20122;-75